sensor_id;sensor_type;location;lat;lon;timestamp;P1;durP1;ratioP1;P2;durP2;ratioP2
22648;SDS011;11491;41.942;24.220;2023-02-28T00:00:49;29.98;;;9.45;;
22648;SDS011;11491;41.942;24.220;2023-02-28T00:03:16;39.60;;;9.95;;
22648;SDS011;11491;41.942;24.220;2023-02-28T00:05:42;30.45;;;9.40;;
22648;SDS011;11491;41.942;24.220;2023-02-28T00:08:10;43.22;;;8.90;;
22648;SDS011;11491;41.942;24.220;2023-02-28T00:10:36;42.10;;;9.82;;
22648;SDS011;11491;41.942;24.220;2023-02-28T00:13:04;43.53;;;10.38;;
22648;SDS011;11491;41.942;24.220;2023-02-28T00:15:33;37.15;;;10.43;;
22648;SDS011;11491;41.942;24.220;2023-02-28T00:18:01;36.90;;;10.70;;
22648;SDS011;11491;41.942;24.220;2023-02-28T00:20:28;49.35;;;18.65;;
22648;SDS011;11491;41.942;24.220;2023-02-28T00:22:55;43.28;;;12.23;;
22648;SDS011;11491;41.942;24.220;2023-02-28T00:25:23;44.65;;;11.57;;
22648;SDS011;11491;41.942;24.220;2023-02-28T00:27:51;43.95;;;11.95;;
22648;SDS011;11491;41.942;24.220;2023-02-28T00:30:18;35.78;;;10.52;;
22648;SDS011;11491;41.942;24.220;2023-02-28T00:32:48;31.98;;;10.65;;
22648;SDS011;11491;41.942;24.220;2023-02-28T00:35:15;36.50;;;11.40;;
22648;SDS011;11491;41.942;24.220;2023-02-28T00:37:44;34.30;;;11.23;;
22648;SDS011;11491;41.942;24.220;2023-02-28T00:40:11;38.50;;;13.05;;
22648;SDS011;11491;41.942;24.220;2023-02-28T00:42:38;50.85;;;13.38;;
22648;SDS011;11491;41.942;24.220;2023-02-28T00:45:05;37.60;;;12.35;;
22648;SDS011;11491;41.942;24.220;2023-02-28T00:47:34;49.72;;;13.48;;
22648;SDS011;11491;41.942;24.220;2023-02-28T00:50:02;33.33;;;10.75;;
22648;SDS011;11491;41.942;24.220;2023-02-28T00:52:30;35.28;;;10.90;;
22648;SDS011;11491;41.942;24.220;2023-02-28T00:54:56;40.83;;;10.75;;
22648;SDS011;11491;41.942;24.220;2023-02-28T00:57:23;36.08;;;9.63;;
22648;SDS011;11491;41.942;24.220;2023-02-28T00:59:50;42.88;;;9.23;;
22648;SDS011;11491;41.942;24.220;2023-02-28T01:02:19;45.58;;;9.85;;
22648;SDS011;11491;41.942;24.220;2023-02-28T01:04:46;35.47;;;10.30;;
22648;SDS011;11491;41.942;24.220;2023-02-28T01:07:14;36.40;;;8.63;;
22648;SDS011;11491;41.942;24.220;2023-02-28T01:09:41;35.88;;;9.02;;
22648;SDS011;11491;41.942;24.220;2023-02-28T01:12:08;33.17;;;8.65;;
22648;SDS011;11491;41.942;24.220;2023-02-28T01:14:35;49.28;;;10.43;;
22648;SDS011;11491;41.942;24.220;2023-02-28T01:17:02;35.60;;;10.10;;
22648;SDS011;11491;41.942;24.220;2023-02-28T01:19:29;33.25;;;9.32;;
22648;SDS011;11491;41.942;24.220;2023-02-28T01:21:55;39.28;;;9.15;;
22648;SDS011;11491;41.942;24.220;2023-02-28T01:24:23;36.05;;;9.20;;
22648;SDS011;11491;41.942;24.220;2023-02-28T01:26:50;38.97;;;10.57;;
22648;SDS011;11491;41.942;24.220;2023-02-28T01:29:17;35.53;;;9.15;;
22648;SDS011;11491;41.942;24.220;2023-02-28T01:31:44;39.75;;;9.23;;
22648;SDS011;11491;41.942;24.220;2023-02-28T01:34:10;35.70;;;9.27;;
22648;SDS011;11491;41.942;24.220;2023-02-28T01:36:37;39.60;;;9.20;;
22648;SDS011;11491;41.942;24.220;2023-02-28T01:39:04;41.08;;;12.57;;
22648;SDS011;11491;41.942;24.220;2023-02-28T01:41:33;42.15;;;16.05;;
22648;SDS011;11491;41.942;24.220;2023-02-28T01:44:03;36.83;;;11.32;;
22648;SDS011;11491;41.942;24.220;2023-02-28T01:46:33;48.10;;;14.60;;
22648;SDS011;11491;41.942;24.220;2023-02-28T01:49:05;46.00;;;15.63;;
22648;SDS011;11491;41.942;24.220;2023-02-28T01:51:37;50.13;;;14.95;;
22648;SDS011;11491;41.942;24.220;2023-02-28T01:54:11;54.65;;;19.20;;
22648;SDS011;11491;41.942;24.220;2023-02-28T01:56:43;49.25;;;19.45;;
22648;SDS011;11491;41.942;24.220;2023-02-28T01:59:14;44.45;;;17.80;;
22648;SDS011;11491;41.942;24.220;2023-02-28T02:01:48;49.17;;;17.35;;
22648;SDS011;11491;41.942;24.220;2023-02-28T02:04:15;57.47;;;20.35;;
22648;SDS011;11491;41.942;24.220;2023-02-28T02:06:42;55.45;;;22.08;;
22648;SDS011;11491;41.942;24.220;2023-02-28T02:09:12;64.80;;;23.35;;
22648;SDS011;11491;41.942;24.220;2023-02-28T02:11:39;51.80;;;22.15;;
22648;SDS011;11491;41.942;24.220;2023-02-28T02:14:15;54.05;;;24.08;;
22648;SDS011;11491;41.942;24.220;2023-02-28T02:19:46;62.60;;;22.92;;
22648;SDS011;11491;41.942;24.220;2023-02-28T02:22:36;55.08;;;22.30;;
22648;SDS011;11491;41.942;24.220;2023-02-28T02:25:21;52.80;;;17.73;;
22648;SDS011;11491;41.942;24.220;2023-02-28T02:33:21;34.35;;;11.80;;
22648;SDS011;11491;41.942;24.220;2023-02-28T02:36:03;29.60;;;11.75;;
22648;SDS011;11491;41.942;24.220;2023-02-28T02:38:36;30.63;;;8.85;;
22648;SDS011;11491;41.942;24.220;2023-02-28T02:41:12;47.08;;;13.43;;
22648;SDS011;11491;41.942;24.220;2023-02-28T02:43:44;40.83;;;11.70;;
22648;SDS011;11491;41.942;24.220;2023-02-28T02:46:16;35.50;;;12.70;;
22648;SDS011;11491;41.942;24.220;2023-02-28T02:48:47;38.35;;;12.57;;
22648;SDS011;11491;41.942;24.220;2023-02-28T02:51:17;40.13;;;13.30;;
22648;SDS011;11491;41.942;24.220;2023-02-28T02:53:47;44.60;;;14.60;;
22648;SDS011;11491;41.942;24.220;2023-02-28T02:56:18;40.90;;;15.38;;
22648;SDS011;11491;41.942;24.220;2023-02-28T02:58:49;47.85;;;14.32;;
22648;SDS011;11491;41.942;24.220;2023-02-28T03:01:19;55.53;;;25.40;;
22648;SDS011;11491;41.942;24.220;2023-02-28T03:03:52;40.28;;;12.00;;
22648;SDS011;11491;41.942;24.220;2023-02-28T03:06:22;57.03;;;27.88;;
22648;SDS011;11491;41.942;24.220;2023-02-28T03:08:49;79.78;;;36.38;;
22648;SDS011;11491;41.942;24.220;2023-02-28T03:11:15;75.95;;;41.95;;
22648;SDS011;11491;41.942;24.220;2023-02-28T03:13:49;39.92;;;21.75;;
22648;SDS011;11491;41.942;24.220;2023-02-28T03:16:35;40.72;;;14.30;;
22648;SDS011;11491;41.942;24.220;2023-02-28T03:19:14;36.67;;;13.25;;
22648;SDS011;11491;41.942;24.220;2023-02-28T03:21:54;40.30;;;14.07;;
22648;SDS011;11491;41.942;24.220;2023-02-28T03:24:31;36.75;;;14.75;;
22648;SDS011;11491;41.942;24.220;2023-02-28T03:27:04;38.15;;;16.25;;
22648;SDS011;11491;41.942;24.220;2023-02-28T03:29:34;42.85;;;16.67;;
22648;SDS011;11491;41.942;24.220;2023-02-28T03:32:05;41.88;;;13.45;;
22648;SDS011;11491;41.942;24.220;2023-02-28T03:34:39;40.15;;;14.32;;
22648;SDS011;11491;41.942;24.220;2023-02-28T03:37:14;38.42;;;12.73;;
22648;SDS011;11491;41.942;24.220;2023-02-28T03:39:47;46.05;;;13.40;;
22648;SDS011;11491;41.942;24.220;2023-02-28T03:42:20;37.65;;;13.40;;
22648;SDS011;11491;41.942;24.220;2023-02-28T03:44:50;47.83;;;14.02;;
22648;SDS011;11491;41.942;24.220;2023-02-28T03:47:22;47.42;;;19.35;;
22648;SDS011;11491;41.942;24.220;2023-02-28T03:49:55;37.03;;;15.05;;
22648;SDS011;11491;41.942;24.220;2023-02-28T03:52:29;37.05;;;14.73;;
22648;SDS011;11491;41.942;24.220;2023-02-28T03:55:00;46.88;;;15.40;;
22648;SDS011;11491;41.942;24.220;2023-02-28T03:57:33;29.08;;;12.90;;
22648;SDS011;11491;41.942;24.220;2023-02-28T04:00:04;36.42;;;13.07;;
22648;SDS011;11491;41.942;24.220;2023-02-28T04:02:34;43.70;;;15.32;;
22648;SDS011;11491;41.942;24.220;2023-02-28T04:05:01;38.97;;;16.58;;
22648;SDS011;11491;41.942;24.220;2023-02-28T04:07:30;36.42;;;17.27;;
22648;SDS011;11491;41.942;24.220;2023-02-28T04:09:57;36.15;;;13.25;;
22648;SDS011;11491;41.942;24.220;2023-02-28T04:12:25;37.95;;;11.40;;
22648;SDS011;11491;41.942;24.220;2023-02-28T04:14:52;38.17;;;13.27;;
22648;SDS011;11491;41.942;24.220;2023-02-28T04:17:19;38.67;;;13.93;;
22648;SDS011;11491;41.942;24.220;2023-02-28T04:19:45;40.00;;;12.35;;
22648;SDS011;11491;41.942;24.220;2023-02-28T04:22:12;46.63;;;14.18;;
22648;SDS011;11491;41.942;24.220;2023-02-28T04:24:40;40.05;;;20.77;;
22648;SDS011;11491;41.942;24.220;2023-02-28T04:27:08;53.47;;;19.50;;
22648;SDS011;11491;41.942;24.220;2023-02-28T04:29:35;50.83;;;21.35;;
22648;SDS011;11491;41.942;24.220;2023-02-28T04:32:03;52.42;;;21.33;;
22648;SDS011;11491;41.942;24.220;2023-02-28T04:34:30;47.33;;;18.73;;
22648;SDS011;11491;41.942;24.220;2023-02-28T04:36:57;49.92;;;18.00;;
22648;SDS011;11491;41.942;24.220;2023-02-28T04:39:25;46.63;;;21.98;;
22648;SDS011;11491;41.942;24.220;2023-02-28T04:41:53;82.85;;;41.75;;
22648;SDS011;11491;41.942;24.220;2023-02-28T04:44:20;62.35;;;29.95;;
22648;SDS011;11491;41.942;24.220;2023-02-28T04:46:47;69.32;;;33.25;;
22648;SDS011;11491;41.942;24.220;2023-02-28T04:49:15;63.35;;;27.63;;
22648;SDS011;11491;41.942;24.220;2023-02-28T04:51:42;66.55;;;31.52;;
22648;SDS011;11491;41.942;24.220;2023-02-28T04:54:09;86.47;;;42.25;;
22648;SDS011;11491;41.942;24.220;2023-02-28T04:56:35;134.13;;;67.35;;
22648;SDS011;11491;41.942;24.220;2023-02-28T04:59:03;229.48;;;121.10;;
22648;SDS011;11491;41.942;24.220;2023-02-28T05:01:31;186.32;;;103.00;;
22648;SDS011;11491;41.942;24.220;2023-02-28T05:03:59;139.05;;;73.75;;
22648;SDS011;11491;41.942;24.220;2023-02-28T05:06:28;120.28;;;66.53;;
22648;SDS011;11491;41.942;24.220;2023-02-28T05:08:57;81.25;;;41.78;;
22648;SDS011;11491;41.942;24.220;2023-02-28T05:11:25;75.85;;;40.10;;
22648;SDS011;11491;41.942;24.220;2023-02-28T05:13:54;76.65;;;43.28;;
22648;SDS011;11491;41.942;24.220;2023-02-28T05:16:22;101.05;;;48.33;;
22648;SDS011;11491;41.942;24.220;2023-02-28T05:18:49;90.53;;;45.40;;
22648;SDS011;11491;41.942;24.220;2023-02-28T05:21:25;96.90;;;48.20;;
22648;SDS011;11491;41.942;24.220;2023-02-28T05:23:54;97.90;;;47.15;;
22648;SDS011;11491;41.942;24.220;2023-02-28T05:26:22;102.88;;;53.92;;
22648;SDS011;11491;41.942;24.220;2023-02-28T05:28:49;109.60;;;56.05;;
22648;SDS011;11491;41.942;24.220;2023-02-28T05:31:16;170.55;;;92.90;;
22648;SDS011;11491;41.942;24.220;2023-02-28T05:33:44;175.05;;;95.22;;
22648;SDS011;11491;41.942;24.220;2023-02-28T05:36:11;202.10;;;124.72;;
22648;SDS011;11491;41.942;24.220;2023-02-28T05:38:38;129.90;;;70.22;;
22648;SDS011;11491;41.942;24.220;2023-02-28T05:41:05;112.13;;;64.55;;
22648;SDS011;11491;41.942;24.220;2023-02-28T05:43:33;125.82;;;61.58;;
22648;SDS011;11491;41.942;24.220;2023-02-28T05:46:01;111.70;;;56.33;;
22648;SDS011;11491;41.942;24.220;2023-02-28T05:48:28;127.82;;;66.35;;
22648;SDS011;11491;41.942;24.220;2023-02-28T05:50:58;142.15;;;78.70;;
22648;SDS011;11491;41.942;24.220;2023-02-28T05:53:24;172.88;;;98.07;;
22648;SDS011;11491;41.942;24.220;2023-02-28T05:55:52;176.30;;;91.82;;
22648;SDS011;11491;41.942;24.220;2023-02-28T05:58:19;119.82;;;61.95;;
22648;SDS011;11491;41.942;24.220;2023-02-28T06:00:46;127.40;;;65.20;;
22648;SDS011;11491;41.942;24.220;2023-02-28T06:03:13;192.52;;;105.22;;
22648;SDS011;11491;41.942;24.220;2023-02-28T06:05:39;205.18;;;121.28;;
22648;SDS011;11491;41.942;24.220;2023-02-28T06:08:08;239.60;;;135.10;;
22648;SDS011;11491;41.942;24.220;2023-02-28T06:10:34;224.68;;;130.35;;
22648;SDS011;11491;41.942;24.220;2023-02-28T06:13:01;210.75;;;119.22;;
22648;SDS011;11491;41.942;24.220;2023-02-28T06:15:28;159.18;;;88.45;;
22648;SDS011;11491;41.942;24.220;2023-02-28T06:17:56;180.57;;;108.00;;
22648;SDS011;11491;41.942;24.220;2023-02-28T06:20:23;239.25;;;140.10;;
22648;SDS011;11491;41.942;24.220;2023-02-28T06:22:54;204.82;;;119.30;;
22648;SDS011;11491;41.942;24.220;2023-02-28T06:25:22;188.43;;;111.75;;
22648;SDS011;11491;41.942;24.220;2023-02-28T06:27:49;163.70;;;99.68;;
22648;SDS011;11491;41.942;24.220;2023-02-28T06:30:16;157.50;;;84.80;;
22648;SDS011;11491;41.942;24.220;2023-02-28T06:32:43;164.98;;;88.80;;
22648;SDS011;11491;41.942;24.220;2023-02-28T06:35:10;151.57;;;90.55;;
22648;SDS011;11491;41.942;24.220;2023-02-28T06:37:36;136.52;;;74.15;;
22648;SDS011;11491;41.942;24.220;2023-02-28T06:40:03;123.25;;;70.30;;
22648;SDS011;11491;41.942;24.220;2023-02-28T06:42:34;111.60;;;63.97;;
22648;SDS011;11491;41.942;24.220;2023-02-28T06:45:01;97.03;;;54.15;;
22648;SDS011;11491;41.942;24.220;2023-02-28T06:47:34;86.15;;;49.60;;
22648;SDS011;11491;41.942;24.220;2023-02-28T06:50:01;102.57;;;61.28;;
22648;SDS011;11491;41.942;24.220;2023-02-28T06:52:29;74.47;;;40.97;;
22648;SDS011;11491;41.942;24.220;2023-02-28T06:54:55;36.58;;;15.13;;
22648;SDS011;11491;41.942;24.220;2023-02-28T06:57:27;38.40;;;16.45;;
22648;SDS011;11491;41.942;24.220;2023-02-28T06:59:57;41.80;;;18.05;;
22648;SDS011;11491;41.942;24.220;2023-02-28T07:02:24;58.20;;;27.88;;
22648;SDS011;11491;41.942;24.220;2023-02-28T07:04:51;59.25;;;26.25;;
22648;SDS011;11491;41.942;24.220;2023-02-28T07:07:18;54.90;;;27.00;;
22648;SDS011;11491;41.942;24.220;2023-02-28T07:09:45;43.97;;;19.17;;
22648;SDS011;11491;41.942;24.220;2023-02-28T07:12:11;42.83;;;17.67;;
22648;SDS011;11491;41.942;24.220;2023-02-28T07:14:38;41.95;;;12.55;;
22648;SDS011;11491;41.942;24.220;2023-02-28T07:17:07;26.45;;;10.73;;
22648;SDS011;11491;41.942;24.220;2023-02-28T07:19:35;35.13;;;11.30;;
22648;SDS011;11491;41.942;24.220;2023-02-28T07:22:02;32.28;;;11.57;;
22648;SDS011;11491;41.942;24.220;2023-02-28T07:24:29;35.22;;;14.02;;
22648;SDS011;11491;41.942;24.220;2023-02-28T07:26:56;39.13;;;19.10;;
22648;SDS011;11491;41.942;24.220;2023-02-28T07:29:24;43.80;;;20.75;;
22648;SDS011;11491;41.942;24.220;2023-02-28T07:31:51;34.33;;;19.38;;
22648;SDS011;11491;41.942;24.220;2023-02-28T07:34:19;51.97;;;27.13;;
22648;SDS011;11491;41.942;24.220;2023-02-28T07:36:46;36.70;;;18.00;;
22648;SDS011;11491;41.942;24.220;2023-02-28T07:39:13;36.50;;;15.73;;
22648;SDS011;11491;41.942;24.220;2023-02-28T07:41:39;22.15;;;9.45;;
22648;SDS011;11491;41.942;24.220;2023-02-28T07:44:08;31.88;;;12.45;;
22648;SDS011;11491;41.942;24.220;2023-02-28T07:46:35;50.00;;;21.67;;
22648;SDS011;11491;41.942;24.220;2023-02-28T07:49:02;32.17;;;14.25;;
22648;SDS011;11491;41.942;24.220;2023-02-28T07:51:31;36.53;;;11.90;;
22648;SDS011;11491;41.942;24.220;2023-02-28T07:53:58;34.10;;;11.68;;
22648;SDS011;11491;41.942;24.220;2023-02-28T07:56:24;30.92;;;9.88;;
22648;SDS011;11491;41.942;24.220;2023-02-28T07:58:51;32.65;;;11.38;;
22648;SDS011;11491;41.942;24.220;2023-02-28T08:01:18;24.83;;;11.05;;
22648;SDS011;11491;41.942;24.220;2023-02-28T08:03:45;24.38;;;10.70;;
22648;SDS011;11491;41.942;24.220;2023-02-28T08:06:15;26.05;;;9.40;;
22648;SDS011;11491;41.942;24.220;2023-02-28T08:08:44;20.88;;;8.13;;
22648;SDS011;11491;41.942;24.220;2023-02-28T08:11:11;28.95;;;8.98;;
22648;SDS011;11491;41.942;24.220;2023-02-28T08:13:37;34.97;;;12.48;;
22648;SDS011;11491;41.942;24.220;2023-02-28T08:16:04;36.33;;;12.93;;
22648;SDS011;11491;41.942;24.220;2023-02-28T08:18:32;38.25;;;15.75;;
22648;SDS011;11491;41.942;24.220;2023-02-28T08:20:58;33.25;;;13.63;;
22648;SDS011;11491;41.942;24.220;2023-02-28T08:23:25;41.83;;;19.92;;
22648;SDS011;11491;41.942;24.220;2023-02-28T08:25:54;39.40;;;17.95;;
22648;SDS011;11491;41.942;24.220;2023-02-28T08:28:21;30.83;;;13.20;;
22648;SDS011;11491;41.942;24.220;2023-02-28T08:30:48;36.47;;;12.18;;
22648;SDS011;11491;41.942;24.220;2023-02-28T08:33:15;35.03;;;13.32;;
22648;SDS011;11491;41.942;24.220;2023-02-28T08:35:41;29.92;;;11.43;;
22648;SDS011;11491;41.942;24.220;2023-02-28T08:38:08;29.75;;;10.45;;
22648;SDS011;11491;41.942;24.220;2023-02-28T08:40:35;30.52;;;11.70;;
22648;SDS011;11491;41.942;24.220;2023-02-28T08:43:03;33.60;;;11.95;;
22648;SDS011;11491;41.942;24.220;2023-02-28T08:45:30;50.03;;;20.25;;
22648;SDS011;11491;41.942;24.220;2023-02-28T08:47:56;45.85;;;18.20;;
22648;SDS011;11491;41.942;24.220;2023-02-28T08:50:23;58.88;;;21.33;;
22648;SDS011;11491;41.942;24.220;2023-02-28T08:52:50;46.60;;;19.80;;
22648;SDS011;11491;41.942;24.220;2023-02-28T08:55:17;28.80;;;13.40;;
22648;SDS011;11491;41.942;24.220;2023-02-28T08:57:43;35.65;;;15.85;;
22648;SDS011;11491;41.942;24.220;2023-02-28T09:00:12;28.73;;;10.63;;
22648;SDS011;11491;41.942;24.220;2023-02-28T09:02:39;38.17;;;18.38;;
22648;SDS011;11491;41.942;24.220;2023-02-28T09:05:08;37.45;;;17.98;;
22648;SDS011;11491;41.942;24.220;2023-02-28T09:07:35;41.70;;;15.68;;
22648;SDS011;11491;41.942;24.220;2023-02-28T09:10:02;29.25;;;12.20;;
22648;SDS011;11491;41.942;24.220;2023-02-28T09:12:31;41.83;;;17.90;;
22648;SDS011;11491;41.942;24.220;2023-02-28T09:14:59;34.50;;;12.60;;
22648;SDS011;11491;41.942;24.220;2023-02-28T09:17:27;34.95;;;15.52;;
22648;SDS011;11491;41.942;24.220;2023-02-28T09:19:54;33.03;;;14.27;;
22648;SDS011;11491;41.942;24.220;2023-02-28T09:22:22;33.05;;;13.80;;
22648;SDS011;11491;41.942;24.220;2023-02-28T09:24:48;33.53;;;17.65;;
22648;SDS011;11491;41.942;24.220;2023-02-28T09:27:15;30.05;;;13.55;;
22648;SDS011;11491;41.942;24.220;2023-02-28T09:29:42;27.60;;;13.38;;
22648;SDS011;11491;41.942;24.220;2023-02-28T09:32:09;24.70;;;11.15;;
22648;SDS011;11491;41.942;24.220;2023-02-28T09:34:37;32.47;;;12.07;;
22648;SDS011;11491;41.942;24.220;2023-02-28T09:37:04;25.70;;;14.77;;
22648;SDS011;11491;41.942;24.220;2023-02-28T09:39:31;29.70;;;13.40;;
22648;SDS011;11491;41.942;24.220;2023-02-28T09:41:57;34.05;;;16.10;;
22648;SDS011;11491;41.942;24.220;2023-02-28T09:44:26;34.10;;;14.50;;
22648;SDS011;11491;41.942;24.220;2023-02-28T09:46:57;33.30;;;13.18;;
22648;SDS011;11491;41.942;24.220;2023-02-28T09:49:28;28.83;;;15.25;;
22648;SDS011;11491;41.942;24.220;2023-02-28T09:52:06;34.00;;;17.85;;
22648;SDS011;11491;41.942;24.220;2023-02-28T09:54:36;33.67;;;19.13;;
22648;SDS011;11491;41.942;24.220;2023-02-28T09:57:06;35.80;;;18.00;;
22648;SDS011;11491;41.942;24.220;2023-02-28T09:59:44;29.05;;;16.38;;
22648;SDS011;11491;41.942;24.220;2023-02-28T10:02:28;32.40;;;17.83;;
22648;SDS011;11491;41.942;24.220;2023-02-28T10:05:18;31.80;;;16.42;;
22648;SDS011;11491;41.942;24.220;2023-02-28T10:07:53;30.83;;;14.80;;
22648;SDS011;11491;41.942;24.220;2023-02-28T10:10:27;30.08;;;14.50;;
22648;SDS011;11491;41.942;24.220;2023-02-28T10:13:00;29.52;;;16.25;;
22648;SDS011;11491;41.942;24.220;2023-02-28T10:15:31;36.22;;;15.15;;
22648;SDS011;11491;41.942;24.220;2023-02-28T10:18:01;28.92;;;16.75;;
22648;SDS011;11491;41.942;24.220;2023-02-28T10:20:30;33.25;;;15.50;;
22648;SDS011;11491;41.942;24.220;2023-02-28T10:23:03;37.28;;;17.80;;
22648;SDS011;11491;41.942;24.220;2023-02-28T10:25:36;43.85;;;18.30;;
22648;SDS011;11491;41.942;24.220;2023-02-28T10:28:11;41.72;;;20.42;;
22648;SDS011;11491;41.942;24.220;2023-02-28T10:30:40;42.63;;;20.08;;
22648;SDS011;11491;41.942;24.220;2023-02-28T10:33:13;42.05;;;19.58;;
22648;SDS011;11491;41.942;24.220;2023-02-28T10:35:45;58.80;;;29.55;;
22648;SDS011;11491;41.942;24.220;2023-02-28T10:38:16;42.67;;;19.80;;
22648;SDS011;11491;41.942;24.220;2023-02-28T10:40:44;46.30;;;25.30;;
22648;SDS011;11491;41.942;24.220;2023-02-28T10:43:19;46.00;;;21.38;;
22648;SDS011;11491;41.942;24.220;2023-02-28T10:45:57;41.17;;;23.17;;
22648;SDS011;11491;41.942;24.220;2023-02-28T10:48:32;45.28;;;19.52;;
22648;SDS011;11491;41.942;24.220;2023-02-28T10:51:00;49.40;;;26.87;;
22648;SDS011;11491;41.942;24.220;2023-02-28T10:53:34;50.33;;;23.85;;
22648;SDS011;11491;41.942;24.220;2023-02-28T10:56:04;46.35;;;25.67;;
22648;SDS011;11491;41.942;24.220;2023-02-28T10:58:42;46.88;;;26.15;;
22648;SDS011;11491;41.942;24.220;2023-02-28T11:01:15;44.15;;;22.20;;
22648;SDS011;11491;41.942;24.220;2023-02-28T11:03:43;45.20;;;21.50;;
22648;SDS011;11491;41.942;24.220;2023-02-28T11:06:13;51.20;;;21.67;;
22648;SDS011;11491;41.942;24.220;2023-02-28T11:08:47;42.63;;;21.27;;
22648;SDS011;11491;41.942;24.220;2023-02-28T11:11:18;40.90;;;23.13;;
22648;SDS011;11491;41.942;24.220;2023-02-28T11:13:50;57.80;;;32.38;;
22648;SDS011;11491;41.942;24.220;2023-02-28T11:16:19;55.10;;;28.50;;
22648;SDS011;11491;41.942;24.220;2023-02-28T11:18:47;57.33;;;31.35;;
22648;SDS011;11491;41.942;24.220;2023-02-28T11:21:16;55.88;;;24.25;;
22648;SDS011;11491;41.942;24.220;2023-02-28T11:23:48;53.85;;;27.95;;
22648;SDS011;11491;41.942;24.220;2023-02-28T11:29:08;63.53;;;31.77;;
22648;SDS011;11491;41.942;24.220;2023-02-28T11:31:49;49.35;;;27.73;;
22648;SDS011;11491;41.942;24.220;2023-02-28T11:34:28;58.33;;;29.67;;
22648;SDS011;11491;41.942;24.220;2023-02-28T11:36:56;57.22;;;32.92;;
22648;SDS011;11491;41.942;24.220;2023-02-28T11:39:26;53.17;;;26.48;;
22648;SDS011;11491;41.942;24.220;2023-02-28T11:44:52;50.05;;;25.33;;
22648;SDS011;11491;41.942;24.220;2023-02-28T11:47:32;55.45;;;30.58;;
22648;SDS011;11491;41.942;24.220;2023-02-28T11:50:13;58.30;;;30.80;;
22648;SDS011;11491;41.942;24.220;2023-02-28T11:52:48;52.20;;;28.42;;
22648;SDS011;11491;41.942;24.220;2023-02-28T11:55:21;47.67;;;26.50;;
22648;SDS011;11491;41.942;24.220;2023-02-28T11:58:07;49.22;;;27.88;;
22648;SDS011;11491;41.942;24.220;2023-02-28T12:00:54;66.97;;;34.35;;
22648;SDS011;11491;41.942;24.220;2023-02-28T12:03:32;45.58;;;27.23;;
22648;SDS011;11491;41.942;24.220;2023-02-28T12:06:09;63.13;;;37.42;;
22648;SDS011;11491;41.942;24.220;2023-02-28T12:08:47;49.92;;;33.88;;
22648;SDS011;11491;41.942;24.220;2023-02-28T12:11:25;63.53;;;36.47;;
22648;SDS011;11491;41.942;24.220;2023-02-28T12:14:14;50.13;;;33.92;;
22648;SDS011;11491;41.942;24.220;2023-02-28T12:16:57;50.03;;;31.75;;
22648;SDS011;11491;41.942;24.220;2023-02-28T12:19:36;63.38;;;37.33;;
22648;SDS011;11491;41.942;24.220;2023-02-28T12:22:16;41.08;;;26.40;;
22648;SDS011;11491;41.942;24.220;2023-02-28T12:25:00;38.40;;;23.90;;
22648;SDS011;11491;41.942;24.220;2023-02-28T12:27:44;52.47;;;29.27;;
22648;SDS011;11491;41.942;24.220;2023-02-28T12:30:14;53.35;;;33.65;;
22648;SDS011;11491;41.942;24.220;2023-02-28T12:32:46;46.53;;;30.98;;
22648;SDS011;11491;41.942;24.220;2023-02-28T12:35:16;49.75;;;32.20;;
22648;SDS011;11491;41.942;24.220;2023-02-28T12:37:49;46.97;;;27.25;;
22648;SDS011;11491;41.942;24.220;2023-02-28T12:40:22;41.95;;;26.80;;
22648;SDS011;11491;41.942;24.220;2023-02-28T12:42:54;34.92;;;20.48;;
22648;SDS011;11491;41.942;24.220;2023-02-28T12:45:24;41.35;;;25.55;;
22648;SDS011;11491;41.942;24.220;2023-02-28T12:50:28;28.90;;;17.65;;
22648;SDS011;11491;41.942;24.220;2023-02-28T12:52:58;32.58;;;20.50;;
22648;SDS011;11491;41.942;24.220;2023-02-28T12:55:31;50.70;;;30.50;;
22648;SDS011;11491;41.942;24.220;2023-02-28T12:58:10;47.65;;;33.47;;
22648;SDS011;11491;41.942;24.220;2023-02-28T13:00:46;36.05;;;23.45;;
22648;SDS011;11491;41.942;24.220;2023-02-28T13:03:38;46.72;;;34.90;;
22648;SDS011;11491;41.942;24.220;2023-02-28T13:06:19;41.92;;;27.60;;
22648;SDS011;11491;41.942;24.220;2023-02-28T13:09:04;42.88;;;27.50;;
22648;SDS011;11491;41.942;24.220;2023-02-28T13:11:38;82.15;;;52.78;;
22648;SDS011;11491;41.942;24.220;2023-02-28T13:14:15;68.07;;;43.25;;
22648;SDS011;11491;41.942;24.220;2023-02-28T13:16:48;40.35;;;25.40;;
22648;SDS011;11491;41.942;24.220;2023-02-28T13:19:21;35.65;;;24.13;;
22648;SDS011;11491;41.942;24.220;2023-02-28T13:21:51;48.30;;;30.60;;
22648;SDS011;11491;41.942;24.220;2023-02-28T13:33:27;18.38;;;13.10;;
22648;SDS011;11491;41.942;24.220;2023-02-28T13:36:22;19.67;;;13.73;;
22648;SDS011;11491;41.942;24.220;2023-02-28T13:38:51;18.67;;;14.10;;
22648;SDS011;11491;41.942;24.220;2023-02-28T13:44:12;15.15;;;9.98;;
22648;SDS011;11491;41.942;24.220;2023-02-28T13:49:52;18.90;;;12.93;;
22648;SDS011;11491;41.942;24.220;2023-02-28T13:52:20;48.67;;;39.65;;
22648;SDS011;11491;41.942;24.220;2023-02-28T13:54:57;26.13;;;19.15;;
22648;SDS011;11491;41.942;24.220;2023-02-28T13:57:44;18.38;;;14.38;;
22648;SDS011;11491;41.942;24.220;2023-02-28T14:00:23;26.55;;;19.63;;
22648;SDS011;11491;41.942;24.220;2023-02-28T14:03:13;17.38;;;11.70;;
22648;SDS011;11491;41.942;24.220;2023-02-28T14:08:44;18.45;;;12.80;;
22648;SDS011;11491;41.942;24.220;2023-02-28T14:11:24;39.55;;;29.92;;
22648;SDS011;11491;41.942;24.220;2023-02-28T14:13:53;12.30;;;8.60;;
22648;SDS011;11491;41.942;24.220;2023-02-28T14:16:21;12.23;;;9.07;;
22648;SDS011;11491;41.942;24.220;2023-02-28T14:18:52;14.45;;;10.77;;
22648;SDS011;11491;41.942;24.220;2023-02-28T14:21:26;14.43;;;10.97;;
22648;SDS011;11491;41.942;24.220;2023-02-28T14:24:02;35.70;;;28.02;;
22648;SDS011;11491;41.942;24.220;2023-02-28T14:27:05;16.40;;;12.55;;
22648;SDS011;11491;41.942;24.220;2023-02-28T14:33:05;19.23;;;13.85;;
22648;SDS011;11491;41.942;24.220;2023-02-28T14:35:45;13.35;;;9.02;;
22648;SDS011;11491;41.942;24.220;2023-02-28T14:38:25;14.15;;;11.60;;
22648;SDS011;11491;41.942;24.220;2023-02-28T14:40:57;45.80;;;24.23;;
22648;SDS011;11491;41.942;24.220;2023-02-28T14:43:27;96.20;;;38.97;;
22648;SDS011;11491;41.942;24.220;2023-02-28T14:45:55;21.67;;;15.75;;
22648;SDS011;11491;41.942;24.220;2023-02-28T14:48:24;10.27;;;8.48;;
22648;SDS011;11491;41.942;24.220;2023-02-28T14:50:52;18.52;;;12.48;;
22648;SDS011;11491;41.942;24.220;2023-02-28T14:53:21;28.02;;;22.85;;
22648;SDS011;11491;41.942;24.220;2023-02-28T14:55:50;11.38;;;9.32;;
22648;SDS011;11491;41.942;24.220;2023-02-28T14:58:21;14.65;;;12.35;;
22648;SDS011;11491;41.942;24.220;2023-02-28T15:00:50;12.43;;;11.00;;
22648;SDS011;11491;41.942;24.220;2023-02-28T15:03:21;13.07;;;8.98;;
22648;SDS011;11491;41.942;24.220;2023-02-28T15:05:52;17.17;;;14.18;;